Elmer, OK (73539)

9:08 AM CST on February 12, 2016 (GMT -0600)
South Altus - Denise St. | | Change Station
CLOSE
Current Station
Personal Weather Station
Location: Altus, OK
Elevation: 1404 ft
Nearby Weather Stations

Elev 1404 ft 34.63 °N, 99.32 °W | Updated 7 minutes ago

Clear
Clear
48.3 °F
Feels Like 48 °F
N
3.0
Wind Variable Wind from North
Gusts 6.0 mph

Today
High -- | Low -- °F
--% Chance of Precip.
Yesterday
High -- | Low -- °F
Precip. -- in
Pressure 30.30 in
Visibility 10.0 miles
Clouds Clear
Windchill 48 °F
Dew Point 36 °F
Humidity 63%
Rainfall 0.00 in
Snow Depth Not available.
7:25 AM 6:17 PM
Waxing Crescent, 21% visible
METAR KLTS 121358Z AUTO 30002KT 10SM CLR 00/M02 A3028 RMK AO2 SLP261 T10001021 $
Pressure 30.30 in
Visibility 10.0 miles
Clouds Clear
Windchill 48 °F
Dew Point 36 °F
Humidity 63%
Rainfall 0.00 in
Snow Depth Not available.
7:25 AM 6:17 PM
Waxing Crescent, 21% visible
METAR KLTS 121358Z AUTO 30002KT 10SM CLR 00/M02 A3028 RMK AO2 SLP261 T10001021 $

10-Day Weather Forecast

Almanac

Astronomy

Feb. 12, 2016 Rise Set
Actual Time
Civil Twilight
Nautical Twilight
Astronomical Twilight
Moon
Length of Visible Light
Length of Day
Tomorrow will be .
, % of the Moon is Illuminated

Today's Extremes

State Highs State Lows

Community

WunderPhotos

Upload Photos

1,892,323 photos uploaded!

WunderBlog® & News

Nearby

Air Quality

  Air Quality AQ Index Pollutant
Not available.

Snow Depth

Station Depth Elevation

Earthquake Activity

City Distance Mag. Time & Date
Minimum magnitude displayed is 2.5.

Coastal Water Temperatures

Place Temperature

Stations

Nearby Weather Stations

Station Location Temp. Windchill Dew Point Humidity Wind Precip. Elev Updated Type
                   

Watches & Warnings

There are currently no watches in effect.